createdAt,value
2023-03-18T00:01:16.470Z,49.46
2023-03-18T00:03:43.549Z,48.80
2023-03-18T00:06:13.924Z,49.60
2023-03-18T00:08:42.486Z,50.19
2023-03-18T00:11:11.328Z,50.68
2023-03-18T00:13:38.891Z,49.67
2023-03-18T00:16:07.107Z,50.58
2023-03-18T00:18:34.497Z,51.16
2023-03-18T00:21:02.084Z,50.72
2023-03-18T00:23:28.996Z,50.81
2023-03-18T00:25:57.562Z,50.67
2023-03-18T00:28:24.811Z,50.83
2023-03-18T00:30:52.067Z,50.15
2023-03-18T00:33:19.949Z,51.13
2023-03-18T00:35:48.203Z,51.43
2023-03-18T00:38:21.029Z,51.00
2023-03-18T00:41:04.297Z,50.67
2023-03-18T00:43:35.989Z,50.92
2023-03-18T00:46:03.651Z,50.90
2023-03-18T00:48:30.507Z,52.32
2023-03-18T00:50:57.731Z,51.44
2023-03-18T00:53:26.270Z,51.57
2023-03-18T00:55:53.225Z,52.15
2023-03-18T00:58:20.289Z,52.57
2023-03-18T01:00:47.767Z,51.49
2023-03-18T01:03:15.450Z,52.08
2023-03-18T01:05:42.448Z,52.19
2023-03-18T01:08:09.730Z,52.31
2023-03-18T01:10:36.658Z,52.65
2023-03-18T01:13:03.559Z,53.56
2023-03-18T01:15:30.825Z,53.16
2023-03-18T01:17:58.516Z,53.21
2023-03-18T01:20:26.593Z,53.59
2023-03-18T01:22:57.015Z,53.55
2023-03-18T01:25:24.594Z,53.17
2023-03-18T01:27:54.062Z,54.21
2023-03-18T01:30:21.045Z,53.57
2023-03-18T01:32:48.974Z,54.83
2023-03-18T01:35:16.832Z,54.29
2023-03-18T01:37:46.926Z,54.29
2023-03-18T01:40:15.213Z,54.46
2023-03-18T01:42:47.354Z,54.97
2023-03-18T01:45:18.141Z,52.72
2023-03-18T01:47:46.792Z,53.81
2023-03-18T01:50:23.380Z,54.26
2023-03-18T01:52:56.717Z,54.82
2023-03-18T01:55:27.867Z,55.48
2023-03-18T01:57:56.434Z,54.69
2023-03-18T02:00:23.785Z,54.53
2023-03-18T02:02:55.805Z,54.98
2023-03-18T02:05:27.687Z,55.64
2023-03-18T02:07:54.601Z,55.25
2023-03-18T02:10:31.259Z,55.88
2023-03-18T02:13:09.962Z,56.14
2023-03-18T02:15:49.389Z,55.99
2023-03-18T02:18:21.334Z,56.60
2023-03-18T02:20:57.690Z,56.79
2023-03-18T02:23:52.690Z,55.58
2023-03-18T02:26:34.077Z,56.42
2023-03-18T02:29:05.725Z,57.43
2023-03-18T02:31:43.452Z,57.09
2023-03-18T02:34:11.902Z,57.40
2023-03-18T02:36:39.663Z,57.49
2023-03-18T02:39:15.733Z,57.43
2023-03-18T02:41:45.000Z,57.88
2023-03-18T02:44:13.304Z,60.19
2023-03-18T02:47:06.688Z,59.29
2023-03-18T02:49:33.738Z,58.56
2023-03-18T02:52:01.368Z,58.74
2023-03-18T02:54:30.943Z,59.64
2023-03-18T02:56:58.627Z,60.15
2023-03-18T02:59:26.663Z,60.49
2023-03-18T03:01:54.981Z,60.69
2023-03-18T03:04:23.796Z,61.10
2023-03-18T03:06:52.447Z,61.30
2023-03-18T03:09:31.254Z,62.44
2023-03-18T03:11:58.274Z,61.46
2023-03-18T03:14:26.912Z,61.68
2023-03-18T03:16:58.964Z,61.75
2023-03-18T03:19:25.996Z,62.07
2023-03-18T03:21:52.975Z,61.45
2023-03-18T03:24:20.365Z,62.54
2023-03-18T03:26:47.623Z,61.91
2023-03-18T03:29:14.581Z,62.86
2023-03-18T03:31:41.753Z,62.74
2023-03-18T03:34:08.694Z,63.04
2023-03-18T03:36:35.642Z,63.01
2023-03-18T03:39:04.250Z,63.08
2023-03-18T03:41:35.334Z,63.30
2023-03-18T03:44:02.304Z,63.82
2023-03-18T03:46:29.308Z,63.43
2023-03-18T03:48:57.239Z,62.98
2023-03-18T03:51:24.802Z,63.09
2023-03-18T03:53:51.983Z,63.99
2023-03-18T03:56:18.976Z,63.53
2023-03-18T03:58:45.960Z,63.98
2023-03-18T04:01:13.613Z,63.35
2023-03-18T04:03:41.066Z,63.81
2023-03-18T04:06:08.662Z,63.87
2023-03-18T04:08:39.936Z,63.43
2023-03-18T04:11:07.034Z,63.70
2023-03-18T04:13:34.316Z,63.87
2023-03-18T04:16:01.344Z,63.72
2023-03-18T04:18:29.124Z,63.30
2023-03-18T04:20:56.288Z,64.04
2023-03-18T04:23:39.215Z,63.86
2023-03-18T04:26:06.241Z,63.77
2023-03-18T04:28:34.151Z,63.79
2023-03-18T04:31:03.191Z,63.52
2023-03-18T04:33:30.718Z,63.12
2023-03-18T04:35:58.398Z,63.76
2023-03-18T04:38:28.335Z,63.22
2023-03-18T04:40:55.676Z,63.36
2023-03-18T04:43:23.051Z,63.72
2023-03-18T04:45:51.929Z,63.39
2023-03-18T04:48:20.101Z,63.05
2023-03-18T04:50:48.469Z,64.02
2023-03-18T04:53:20.936Z,63.88
2023-03-18T04:55:50.733Z,63.11
2023-03-18T04:58:19.700Z,62.53
2023-03-18T05:00:59.058Z,60.62
2023-03-18T05:03:33.496Z,60.37
2023-03-18T05:06:00.949Z,61.16
2023-03-18T05:08:37.893Z,60.15
2023-03-18T05:11:04.921Z,61.27
2023-03-18T05:13:34.212Z,61.18
2023-03-18T05:16:01.528Z,61.84
2023-03-18T05:18:28.455Z,60.85
2023-03-18T05:20:59.059Z,61.58
2023-03-18T05:23:25.951Z,60.19
2023-03-18T05:25:55.857Z,59.79
2023-03-18T05:28:26.155Z,61.02
2023-03-18T05:31:15.828Z,59.72
2023-03-18T05:33:44.340Z,60.30
2023-03-18T05:36:13.413Z,60.74
2023-03-18T05:38:52.066Z,60.22
2023-03-18T05:41:19.282Z,59.75
2023-03-18T05:43:47.665Z,60.31
2023-03-18T05:46:15.288Z,57.46
2023-03-18T05:49:02.417Z,57.06
2023-03-18T05:51:38.129Z,58.85
2023-03-18T05:54:05.630Z,57.51
2023-03-18T05:56:40.027Z,55.30
2023-03-18T05:59:07.804Z,57.01
2023-03-18T06:01:42.915Z,54.89
2023-03-18T06:04:10.383Z,52.58
2023-03-18T06:06:40.693Z,53.30
2023-03-18T06:09:13.140Z,53.74
2023-03-18T06:11:44.600Z,50.93
2023-03-18T06:14:12.924Z,52.03
2023-03-18T06:16:42.226Z,54.13
2023-03-18T06:19:11.036Z,51.36
2023-03-18T06:21:41.712Z,47.13
2023-03-18T06:24:09.677Z,50.40
2023-03-18T06:26:38.478Z,50.76
2023-03-18T06:29:07.233Z,48.82
2023-03-18T06:31:35.220Z,49.74
2023-03-18T06:34:05.132Z,51.78
2023-03-18T06:36:34.832Z,50.06
2023-03-18T06:39:04.341Z,47.06
2023-03-18T06:41:32.125Z,50.40
2023-03-18T06:44:23.377Z,48.20
2023-03-18T06:46:51.785Z,44.70
2023-03-18T06:49:19.213Z,47.15
2023-03-18T06:51:52.414Z,45.65
2023-03-18T06:54:19.414Z,43.27
2023-03-18T06:56:46.976Z,41.10
2023-03-18T06:59:19.946Z,42.43
2023-03-18T07:01:47.078Z,40.24
2023-03-18T07:04:16.735Z,40.12
2023-03-18T07:06:43.639Z,42.06
2023-03-18T07:09:12.664Z,43.50
2023-03-18T07:11:40.746Z,40.28
2023-03-18T07:14:12.236Z,42.47
2023-03-18T07:16:39.170Z,46.38
2023-03-18T07:19:06.113Z,46.25
2023-03-18T07:21:33.900Z,45.15
2023-03-18T07:24:04.088Z,44.75
2023-03-18T07:40:21.210Z,38.77
2023-03-18T07:42:48.205Z,38.98
2023-03-18T07:45:15.086Z,42.97
2023-03-18T07:47:41.938Z,39.45
2023-03-18T07:50:10.201Z,35.06
2023-03-18T07:52:37.525Z,36.66
2023-03-18T07:55:05.058Z,45.97
2023-03-18T07:57:31.984Z,44.81
2023-03-18T07:59:58.933Z,46.44
2023-03-18T08:02:27.717Z,49.30
2023-03-18T08:04:54.941Z,51.15
2023-03-18T08:07:23.151Z,48.30
2023-03-18T08:09:50.767Z,52.43
2023-03-18T08:12:19.248Z,52.71
2023-03-18T08:14:46.128Z,54.35
2023-03-18T08:17:13.242Z,52.96
2023-03-18T08:19:40.162Z,51.61
2023-03-18T08:22:08.298Z,53.31
2023-03-18T08:24:35.300Z,52.66
2023-03-18T08:27:02.152Z,52.10
2023-03-18T08:29:29.039Z,51.95
2023-03-18T08:31:56.048Z,50.32
2023-03-18T08:34:23.603Z,44.16
2023-03-18T08:36:50.631Z,44.00
2023-03-18T08:39:17.498Z,45.17
2023-03-18T08:41:45.859Z,43.09
2023-03-18T08:44:12.916Z,48.16
2023-03-18T08:46:39.798Z,50.58
2023-03-18T08:49:07.813Z,50.34
2023-03-18T08:51:34.835Z,51.29
2023-03-18T08:54:01.876Z,51.50
2023-03-18T08:56:28.838Z,53.06
2023-03-18T08:58:55.785Z,54.89
2023-03-18T09:01:22.906Z,56.75
2023-03-18T09:03:50.756Z,57.02
2023-03-18T09:06:18.679Z,55.97
2023-03-18T09:08:49.105Z,56.88
2023-03-18T09:11:16.337Z,57.46
2023-03-18T09:13:45.702Z,56.50
2023-03-18T09:16:12.860Z,57.77
2023-03-18T09:18:43.560Z,57.96
2023-03-18T09:21:12.812Z,56.32
2023-03-18T09:23:39.785Z,58.07
2023-03-18T09:26:06.627Z,58.90
2023-03-18T09:28:33.573Z,57.74
2023-03-18T09:31:00.545Z,58.92
2023-03-18T09:33:27.801Z,60.89
2023-03-18T09:35:54.947Z,60.07
2023-03-18T09:38:22.575Z,60.52
2023-03-18T09:40:58.426Z,60.28
2023-03-18T09:43:54.502Z,59.33
2023-03-18T09:46:33.845Z,59.55
2023-03-18T09:49:16.022Z,62.22
2023-03-18T09:51:47.831Z,61.44
2023-03-18T09:54:23.832Z,62.34
2023-03-18T09:56:53.049Z,64.73
2023-03-18T09:59:25.120Z,64.13
2023-03-18T10:01:57.345Z,64.31
2023-03-18T10:04:25.436Z,64.60
2023-03-18T10:07:00.247Z,64.30
2023-03-18T10:09:34.381Z,65.67
2023-03-18T10:12:27.183Z,65.74
2023-03-18T10:15:31.440Z,65.84
2023-03-18T10:18:37.454Z,66.21
2023-03-18T10:21:47.213Z,66.97
2023-03-18T10:24:15.014Z,66.42
2023-03-18T10:26:57.833Z,65.95
2023-03-18T10:30:03.982Z,65.29
2023-03-18T10:32:49.981Z,63.52
2023-03-18T10:35:44.170Z,64.19
2023-03-18T10:38:17.236Z,64.94
2023-03-18T10:40:44.791Z,66.96
2023-03-18T10:43:22.100Z,66.99
2023-03-18T10:46:09.838Z,67.17
2023-03-18T10:48:42.445Z,67.73
2023-03-18T10:51:21.932Z,68.75
2023-03-18T10:53:59.000Z,68.95
2023-03-18T10:56:26.415Z,69.56
2023-03-18T10:58:53.750Z,67.96
2023-03-18T11:01:25.327Z,68.75
2023-03-18T11:04:06.258Z,68.75
2023-03-18T11:06:39.667Z,68.21
2023-03-18T11:09:10.180Z,68.53
2023-03-18T11:11:42.498Z,68.20
2023-03-18T11:14:17.258Z,68.24
2023-03-18T11:16:50.337Z,69.14
2023-03-18T11:19:21.071Z,68.54
2023-03-18T11:21:49.175Z,68.39
2023-03-18T11:24:36.332Z,68.11
2023-03-18T11:27:04.358Z,67.68
2023-03-18T11:29:34.272Z,68.94
2023-03-18T11:32:02.351Z,69.80
2023-03-18T11:34:35.100Z,70.39
2023-03-18T11:37:08.324Z,70.28
2023-03-18T11:39:37.980Z,71.07
2023-03-18T11:42:19.158Z,70.64
2023-03-18T11:44:46.687Z,70.77
2023-03-18T11:47:27.415Z,71.07
2023-03-18T11:49:54.935Z,70.55
2023-03-18T11:52:42.955Z,71.69
2023-03-18T11:55:30.316Z,72.45
2023-03-18T11:58:07.086Z,73.34
2023-03-18T12:00:43.662Z,74.63
2023-03-18T12:03:38.477Z,74.77
2023-03-18T12:06:25.216Z,74.10
2023-03-18T12:09:17.108Z,75.16
2023-03-18T12:12:14.754Z,75.76
2023-03-18T12:14:56.013Z,74.70
2023-03-18T12:17:22.928Z,75.17
2023-03-18T12:19:59.010Z,75.73
2023-03-18T12:22:31.848Z,75.76
2023-03-18T12:25:20.795Z,76.02
2023-03-18T12:28:09.693Z,76.43
2023-03-18T12:31:07.196Z,77.57
2023-03-18T12:33:48.856Z,77.40
2023-03-18T12:36:31.143Z,77.79
2023-03-18T12:39:04.200Z,79.08
2023-03-18T12:42:27.246Z,78.98
2023-03-18T12:45:02.254Z,78.18
2023-03-18T12:48:01.072Z,77.57
2023-03-18T12:50:34.668Z,79.82
2023-03-18T12:53:10.017Z,78.60
2023-03-18T12:55:42.842Z,79.82
2023-03-18T12:58:21.681Z,80.98
2023-03-18T13:01:10.533Z,81.05
2023-03-18T13:03:43.455Z,81.74
2023-03-18T13:06:18.783Z,82.37
2023-03-18T13:09:00.840Z,83.08
2023-03-18T13:12:04.893Z,82.61
2023-03-18T13:15:00.958Z,82.39
2023-03-18T13:17:36.360Z,82.41
2023-03-18T13:20:12.263Z,83.74
2023-03-18T13:22:47.063Z,83.86
2023-03-18T13:25:28.003Z,84.65
2023-03-18T13:28:07.822Z,84.58
2023-03-18T13:31:04.681Z,85.66
2023-03-18T13:34:05.005Z,85.56
2023-03-18T13:36:53.126Z,86.71
2023-03-18T13:39:38.102Z,87.16
2023-03-18T13:42:19.241Z,85.63
2023-03-18T13:45:08.814Z,86.16
2023-03-18T13:47:38.991Z,87.38
2023-03-18T13:50:22.592Z,85.85
2023-03-18T13:52:54.064Z,88.49
2023-03-18T13:55:27.631Z,85.74
2023-03-18T13:58:09.349Z,85.93
2023-03-18T14:00:42.246Z,86.38
2023-03-18T14:03:24.050Z,86.11
2023-03-18T14:06:09.435Z,86.21
2023-03-18T14:08:39.455Z,86.75
2023-03-18T14:11:23.128Z,87.06
2023-03-18T14:13:51.456Z,87.95
2023-03-18T14:16:23.373Z,87.17
2023-03-18T14:19:32.328Z,87.46
2023-03-18T14:22:13.884Z,88.26
2023-03-18T14:24:40.973Z,88.48
2023-03-18T14:27:07.822Z,88.79
2023-03-18T14:29:37.604Z,88.68
2023-03-18T14:32:09.244Z,88.71
2023-03-18T14:34:56.638Z,88.79
2023-03-18T14:37:29.574Z,88.31
2023-03-18T14:40:03.901Z,88.76
2023-03-18T14:42:37.222Z,89.02
2023-03-18T14:45:21.537Z,89.36
2023-03-18T14:47:59.747Z,88.66
2023-03-18T14:50:43.275Z,89.51
2023-03-18T14:53:29.079Z,89.41
2023-03-18T14:55:58.977Z,89.84
2023-03-18T14:58:27.554Z,91.25
2023-03-18T15:01:05.127Z,91.23
2023-03-18T15:03:32.567Z,91.39
2023-03-18T15:06:02.696Z,91.82
2023-03-18T15:08:47.249Z,91.16
2023-03-18T15:11:16.712Z,91.90
2023-03-18T15:13:44.869Z,92.06
2023-03-18T15:16:14.457Z,93.60
2023-03-18T15:18:41.498Z,92.08
2023-03-18T15:21:10.454Z,92.35
2023-03-18T15:23:45.728Z,93.47
2023-03-18T15:26:21.598Z,93.03
2023-03-18T15:28:53.266Z,94.24
2023-03-18T15:31:38.362Z,94.92
2023-03-18T15:34:18.973Z,94.47
2023-03-18T15:36:55.555Z,96.36
2023-03-18T15:39:32.286Z,94.69
2023-03-18T15:42:01.063Z,96.15
2023-03-18T15:44:37.392Z,95.78
2023-03-18T15:47:17.782Z,95.96
2023-03-18T15:49:57.684Z,95.50
2023-03-18T15:52:27.779Z,95.36
2023-03-18T15:54:54.585Z,97.29
2023-03-18T15:57:29.891Z,97.36
2023-03-18T15:59:56.735Z,97.05
2023-03-18T16:02:23.807Z,98.18
2023-03-18T16:04:50.719Z,98.33
2023-03-18T16:07:28.463Z,97.96
2023-03-18T16:09:55.407Z,97.93
2023-03-18T16:12:25.397Z,98.90
2023-03-18T16:14:55.869Z,100.00
2023-03-18T16:17:22.976Z,99.64
2023-03-18T16:19:54.417Z,100.00
2023-03-18T16:22:22.125Z,100.00
2023-03-18T16:24:49.056Z,100.00
2023-03-18T16:27:39.477Z,100.00
2023-03-18T16:30:20.125Z,100.00
2023-03-18T16:32:47.386Z,100.00
2023-03-18T16:35:19.465Z,100.00
2023-03-18T16:37:48.666Z,100.00
2023-03-18T16:40:18.274Z,100.00
2023-03-18T16:42:47.949Z,100.00
2023-03-18T16:45:20.334Z,100.00
2023-03-18T16:47:50.146Z,100.00
2023-03-18T16:50:17.836Z,100.00
2023-03-18T16:52:45.809Z,100.00
2023-03-18T16:55:14.629Z,100.00
2023-03-18T16:57:52.430Z,100.00
2023-03-18T17:00:23.659Z,100.00
2023-03-18T17:02:55.614Z,100.00
2023-03-18T17:05:23.011Z,100.00
2023-03-18T17:07:51.060Z,100.00
2023-03-18T17:10:23.299Z,100.00
2023-03-18T17:12:57.593Z,100.00
2023-03-18T17:15:28.509Z,100.00
2023-03-18T17:17:58.249Z,100.00
2023-03-18T17:20:27.567Z,100.00
2023-03-18T17:22:55.587Z,100.00
2023-03-18T17:25:27.225Z,100.00
2023-03-18T17:27:57.337Z,100.00
2023-03-18T17:30:32.688Z,100.00
2023-03-18T17:33:00.683Z,100.00
2023-03-18T17:35:27.816Z,100.00
2023-03-18T17:37:54.860Z,100.00
2023-03-18T17:40:23.183Z,100.00
2023-03-18T17:42:52.288Z,100.00
2023-03-18T17:45:32.434Z,99.76
2023-03-18T17:48:16.311Z,100.00
2023-03-18T17:50:44.918Z,100.00
2023-03-18T17:53:33.848Z,100.00
2023-03-18T17:56:02.524Z,100.00
2023-03-18T17:58:31.957Z,100.00
2023-03-18T18:01:07.936Z,100.00
2023-03-18T18:03:37.053Z,100.00
2023-03-18T18:06:04.643Z,100.00
2023-03-18T18:08:31.802Z,100.00
2023-03-18T18:11:15.282Z,100.00
2023-03-18T18:13:43.356Z,100.00
2023-03-18T18:16:10.955Z,100.00
2023-03-18T18:18:38.162Z,100.00
2023-03-18T18:21:10.709Z,100.00
2023-03-18T18:23:38.941Z,100.00
2023-03-18T18:26:09.233Z,100.00
2023-03-18T18:28:41.066Z,100.00
2023-03-18T18:31:10.568Z,100.00
2023-03-18T18:33:39.313Z,100.00
2023-03-18T18:36:07.145Z,100.00
2023-03-18T18:38:34.100Z,100.00
2023-03-18T18:41:02.064Z,100.00
2023-03-18T18:43:29.515Z,100.00
2023-03-18T18:45:58.001Z,100.00
2023-03-18T18:48:34.566Z,100.00
2023-03-18T18:51:04.312Z,100.00
2023-03-18T18:53:36.596Z,100.00
2023-03-18T18:56:32.216Z,100.00
2023-03-18T18:58:59.356Z,100.00
2023-03-18T19:01:26.830Z,100.00
2023-03-18T19:03:54.241Z,100.00
2023-03-18T19:06:30.958Z,100.00
2023-03-18T19:09:04.516Z,100.00
2023-03-18T19:11:31.580Z,100.00
2023-03-18T19:14:27.370Z,100.00
2023-03-18T19:16:59.288Z,100.00
2023-03-18T19:19:31.783Z,100.00
2023-03-18T19:21:59.045Z,100.00
2023-03-18T19:24:28.284Z,100.00
2023-03-18T19:26:57.830Z,100.00
2023-03-18T19:41:58.212Z,100.00
2023-03-18T19:44:27.009Z,100.00
2023-03-18T19:46:55.992Z,100.00
2023-03-18T19:49:32.814Z,100.00
2023-03-18T19:52:00.157Z,100.00
2023-03-18T19:54:32.853Z,100.00
2023-03-18T19:57:03.809Z,100.00
2023-03-18T19:59:38.337Z,100.00
2023-03-18T20:02:24.396Z,100.00
2023-03-18T20:04:57.672Z,100.00
2023-03-18T20:07:27.564Z,100.00
2023-03-18T20:09:55.317Z,100.00
2023-03-18T20:12:36.358Z,100.00
2023-03-18T20:15:04.705Z,100.00
2023-03-18T20:17:39.010Z,100.00
2023-03-18T20:20:20.177Z,100.00
2023-03-18T20:22:53.075Z,100.00
2023-03-18T20:25:25.170Z,100.00
2023-03-18T20:27:55.663Z,100.00
2023-03-18T20:30:24.469Z,100.00
2023-03-18T20:32:51.731Z,100.00
2023-03-18T20:35:19.461Z,100.00
2023-03-18T20:37:46.603Z,100.00
2023-03-18T20:40:23.239Z,100.00
2023-03-18T20:42:50.194Z,100.00
2023-03-18T20:45:17.594Z,100.00
2023-03-18T20:47:45.397Z,100.00
2023-03-18T20:50:25.902Z,100.00
2023-03-18T20:52:52.967Z,100.00
2023-03-18T20:55:33.056Z,100.00
2023-03-18T20:58:01.711Z,100.00
2023-03-18T21:00:33.006Z,100.00
2023-03-18T21:03:02.391Z,100.00
2023-03-18T21:05:29.372Z,100.00
2023-03-18T21:07:56.652Z,100.00
2023-03-18T21:10:26.463Z,100.00
2023-03-18T21:12:53.707Z,100.00
2023-03-18T21:15:26.782Z,100.00
2023-03-18T21:17:54.192Z,100.00
2023-03-18T21:20:26.517Z,100.00
2023-03-18T21:22:54.498Z,100.00
2023-03-18T21:25:27.355Z,100.00
2023-03-18T21:27:57.143Z,100.00
2023-03-18T21:30:24.392Z,100.00
2023-03-18T21:32:51.557Z,100.00
2023-03-18T21:35:24.936Z,100.00
2023-03-18T21:37:53.176Z,100.00
2023-03-18T21:40:23.616Z,100.00
2023-03-18T21:42:51.673Z,100.00
2023-03-18T21:45:24.339Z,100.00
2023-03-18T21:47:52.713Z,100.00
2023-03-18T21:50:25.233Z,100.00
2023-03-18T21:52:55.094Z,100.00
2023-03-18T21:55:23.076Z,100.00
2023-03-18T21:57:49.957Z,100.00
2023-03-18T22:00:20.209Z,100.00
2023-03-18T22:02:48.108Z,99.22
2023-03-18T22:05:24.755Z,100.00
2023-03-18T22:07:51.880Z,100.00
2023-03-18T22:10:23.445Z,98.37
2023-03-18T22:12:50.920Z,99.40
2023-03-18T22:15:23.818Z,100.00
2023-03-18T22:17:51.901Z,97.89
2023-03-18T22:20:18.871Z,98.76
2023-03-18T22:22:45.696Z,98.37
2023-03-18T22:25:33.984Z,96.83
2023-03-18T22:28:00.939Z,98.05
2023-03-18T22:30:30.920Z,98.65
2023-03-18T22:32:59.711Z,97.98
2023-03-18T22:35:28.823Z,98.17
2023-03-18T22:37:56.253Z,99.65
2023-03-18T22:40:31.817Z,98.65
2023-03-18T22:43:00.573Z,99.39
2023-03-18T22:45:32.876Z,100.00
2023-03-18T22:48:03.862Z,98.86
2023-03-18T22:50:32.726Z,99.46
2023-03-18T22:53:03.865Z,100.00
2023-03-18T22:55:37.208Z,100.00
2023-03-18T22:58:04.312Z,98.97
2023-03-18T23:00:36.850Z,99.07
2023-03-18T23:03:09.988Z,100.00
2023-03-18T23:05:36.953Z,98.72
2023-03-18T23:08:03.890Z,99.63
2023-03-18T23:10:31.170Z,100.00
2023-03-18T23:12:58.322Z,99.88
2023-03-18T23:15:25.601Z,97.68
2023-03-18T23:17:52.499Z,98.30
2023-03-18T23:20:19.567Z,99.09
2023-03-18T23:22:46.537Z,97.42
2023-03-18T23:25:16.605Z,97.32
2023-03-18T23:27:44.866Z,98.29
2023-03-18T23:30:14.988Z,99.31
2023-03-18T23:32:42.070Z,96.71
2023-03-18T23:35:09.544Z,97.13
2023-03-18T23:37:36.574Z,98.86
2023-03-18T23:40:05.512Z,96.77
2023-03-18T23:42:32.645Z,94.89
2023-03-18T23:44:59.507Z,95.92
2023-03-18T23:47:26.614Z,97.50
2023-03-18T23:49:53.719Z,95.18
2023-03-18T23:52:20.597Z,95.43
2023-03-18T23:54:47.452Z,97.37
2023-03-18T23:57:14.420Z,96.69
2023-03-18T23:59:42.007Z,95.87
